createdAt,value
2023-04-17T00:01:28.266Z,2.30
2023-04-17T00:03:57.655Z,2.00
2023-04-17T00:06:27.525Z,2.00
2023-04-17T00:08:55.982Z,2.20
2023-04-17T00:11:23.798Z,2.30
2023-04-17T00:13:51.730Z,2.30
2023-04-17T00:16:19.978Z,2.20
2023-04-17T00:18:47.977Z,2.40
2023-04-17T00:21:15.910Z,2.60
2023-04-17T00:23:43.715Z,2.40
2023-04-17T00:26:12.036Z,2.60
2023-04-17T00:28:40.167Z,2.40
2023-04-17T00:31:08.388Z,2.30
2023-04-17T00:33:36.174Z,2.40
2023-04-17T00:36:04.385Z,2.20
2023-04-17T00:38:32.128Z,2.50
2023-04-17T00:40:59.911Z,2.00
2023-04-17T00:43:27.670Z,2.50
2023-04-17T00:45:55.717Z,2.50
2023-04-17T00:48:24.293Z,2.20
2023-04-17T00:50:53.846Z,2.20
2023-04-17T00:53:22.410Z,2.60
2023-04-17T00:55:51.393Z,1.90
2023-04-17T00:58:19.557Z,2.10
2023-04-17T01:00:49.004Z,2.30
2023-04-17T01:03:17.240Z,2.20
2023-04-17T01:05:50.407Z,2.00
2023-04-17T01:08:19.507Z,2.30
2023-04-17T01:10:47.415Z,2.10
2023-04-17T01:13:15.628Z,2.50
2023-04-17T01:15:44.724Z,2.50
2023-04-17T01:18:13.511Z,2.20
2023-04-17T01:20:41.286Z,2.30
2023-04-17T01:23:09.391Z,2.30
2023-04-17T01:25:37.342Z,2.10
2023-04-17T01:28:05.112Z,2.10
2023-04-17T01:30:33.005Z,2.10
2023-04-17T01:33:04.226Z,2.20
2023-04-17T01:35:32.101Z,2.40
2023-04-17T01:38:00.023Z,2.10
2023-04-17T01:40:28.358Z,2.30
2023-04-17T01:42:56.180Z,2.30
2023-04-17T01:45:23.924Z,2.20
2023-04-17T01:47:51.844Z,2.30
2023-04-17T01:50:20.007Z,2.40
2023-04-17T01:52:48.370Z,2.10
2023-04-17T01:55:16.311Z,2.50
2023-04-17T01:57:44.047Z,2.20
2023-04-17T02:00:12.525Z,2.30
2023-04-17T02:02:40.735Z,2.00
2023-04-17T02:05:08.921Z,2.00
2023-04-17T02:07:37.961Z,2.10
2023-04-17T02:10:06.562Z,2.10
2023-04-17T02:12:34.309Z,2.20
2023-04-17T02:15:02.093Z,2.40
2023-04-17T02:17:29.930Z,2.20
2023-04-17T02:19:57.715Z,2.20
2023-04-17T02:22:25.491Z,3.00
2023-04-17T02:24:53.295Z,2.30
2023-04-17T02:27:21.325Z,2.60
2023-04-17T02:29:49.107Z,2.50
2023-04-17T02:32:17.447Z,2.50
2023-04-17T02:34:45.411Z,2.60
2023-04-17T02:37:13.821Z,2.50
2023-04-17T02:39:42.174Z,2.40
2023-04-17T02:42:10.235Z,2.40
2023-04-17T02:44:38.070Z,2.80
2023-04-17T02:47:06.527Z,2.60
2023-04-17T02:49:34.499Z,2.40
2023-04-17T02:52:02.433Z,2.90
2023-04-17T02:54:30.520Z,2.50
2023-04-17T02:56:58.734Z,2.70
2023-04-17T02:59:27.019Z,2.80
2023-04-17T03:01:55.143Z,2.50
2023-04-17T03:04:23.117Z,2.50
2023-04-17T03:06:51.621Z,2.80
2023-04-17T03:09:22.406Z,2.40
2023-04-17T03:11:50.255Z,2.60
2023-04-17T03:14:18.074Z,2.60
2023-04-17T03:16:46.146Z,2.80
2023-04-17T03:19:14.201Z,2.60
2023-04-17T03:21:42.210Z,2.70
2023-04-17T03:24:11.568Z,3.00
2023-04-17T03:26:39.399Z,3.40
2023-04-17T03:29:10.653Z,3.10
2023-04-17T03:31:38.814Z,2.70
2023-04-17T03:34:07.837Z,3.30
2023-04-17T03:36:36.391Z,3.30
2023-04-17T03:39:04.716Z,3.50
2023-04-17T03:41:32.688Z,3.00
2023-04-17T03:44:00.898Z,3.20
2023-04-17T03:46:30.519Z,3.30
2023-04-17T03:48:58.443Z,3.30
2023-04-17T03:51:31.566Z,3.20
2023-04-17T03:54:04.311Z,3.60
2023-04-17T03:56:32.274Z,3.70
2023-04-17T03:59:00.248Z,3.30
2023-04-17T04:01:28.487Z,3.60
2023-04-17T04:04:15.829Z,3.20
2023-04-17T04:06:45.010Z,3.20
2023-04-17T04:09:15.332Z,3.10
2023-04-17T04:11:43.359Z,3.70
2023-04-17T04:14:11.720Z,3.60
2023-04-17T04:16:39.692Z,3.20
2023-04-17T04:19:12.594Z,3.90
2023-04-17T04:21:42.163Z,4.30
2023-04-17T04:24:13.276Z,4.00
2023-04-17T04:26:42.464Z,4.30
2023-04-17T04:29:11.860Z,4.60
2023-04-17T04:32:02.352Z,4.70
2023-04-17T04:34:36.445Z,5.30
2023-04-17T04:37:04.255Z,4.70
2023-04-17T04:39:43.126Z,4.90
2023-04-17T04:42:21.954Z,5.20
2023-04-17T04:45:16.611Z,5.10
2023-04-17T04:47:44.667Z,4.60
2023-04-17T04:50:12.976Z,5.20
2023-04-17T04:52:40.819Z,5.30
2023-04-17T04:55:16.044Z,5.40
2023-04-17T04:57:47.788Z,5.80
2023-04-17T05:00:18.107Z,6.20
2023-04-17T05:02:48.045Z,6.60
2023-04-17T05:05:16.218Z,6.30
2023-04-17T05:07:44.226Z,7.00
2023-04-17T05:10:13.765Z,7.20
2023-04-17T05:12:45.911Z,6.80
2023-04-17T05:15:14.173Z,6.60
2023-04-17T05:17:42.047Z,7.50
2023-04-17T05:20:12.306Z,8.10
2023-04-17T05:22:46.828Z,7.90
2023-04-17T05:25:16.316Z,8.40
2023-04-17T05:27:44.201Z,9.40
2023-04-17T05:30:13.137Z,9.20
2023-04-17T05:32:41.844Z,9.10
2023-04-17T05:35:30.030Z,9.40
2023-04-17T05:37:57.975Z,8.50
2023-04-17T05:40:25.785Z,8.90
2023-04-17T05:42:53.531Z,13.10
2023-04-17T05:45:23.442Z,11.80
2023-04-17T05:50:21.581Z,12.70
2023-04-17T05:52:49.509Z,11.80
2023-04-17T05:55:20.116Z,11.60
2023-04-17T05:57:49.512Z,9.50
2023-04-17T06:00:17.585Z,9.10
2023-04-17T06:02:48.729Z,10.00
2023-04-17T06:05:21.959Z,9.70
2023-04-17T06:07:50.354Z,9.70
2023-04-17T06:10:18.524Z,9.90
2023-04-17T06:12:46.793Z,10.20
2023-04-17T06:15:16.106Z,9.40
2023-04-17T06:17:45.344Z,9.10
2023-04-17T06:20:13.626Z,9.90
2023-04-17T06:22:44.236Z,9.50
2023-04-17T06:25:12.792Z,10.00
2023-04-17T06:27:40.943Z,9.90
2023-04-17T06:30:10.102Z,9.60
2023-04-17T06:32:47.733Z,9.90
2023-04-17T06:35:16.573Z,10.50
2023-04-17T06:37:48.406Z,11.10
2023-04-17T06:40:16.307Z,11.70
2023-04-17T06:42:44.275Z,11.30
2023-04-17T06:45:14.768Z,11.70
2023-04-17T06:47:46.691Z,10.40
2023-04-17T06:50:18.285Z,11.50
2023-04-17T06:52:46.266Z,12.50
2023-04-17T06:55:14.801Z,10.60
2023-04-17T06:57:42.748Z,10.70
2023-04-17T07:00:11.650Z,11.50
2023-04-17T07:02:39.671Z,12.00
2023-04-17T07:05:08.087Z,11.30
2023-04-17T07:07:36.512Z,13.00
2023-04-17T07:10:05.105Z,13.70
2023-04-17T07:12:33.648Z,12.50
2023-04-17T07:15:01.583Z,13.00
2023-04-17T07:17:29.385Z,12.30
2023-04-17T07:19:57.251Z,13.70
2023-04-17T07:22:27.116Z,13.80
2023-04-17T07:24:55.319Z,15.10
2023-04-17T07:27:23.202Z,14.00
2023-04-17T07:29:54.732Z,14.20
2023-04-17T07:32:26.661Z,15.40
2023-04-17T07:34:54.476Z,15.30
2023-04-17T07:37:22.491Z,15.40
2023-04-17T07:39:50.597Z,15.40
2023-04-17T07:42:18.457Z,14.60
2023-04-17T07:44:47.247Z,14.50
2023-04-17T07:47:15.176Z,14.60
2023-04-17T07:49:46.546Z,15.70
2023-04-17T07:52:15.400Z,14.40
2023-04-17T07:54:43.891Z,15.00
2023-04-17T07:57:11.706Z,15.30
2023-04-17T07:59:39.597Z,16.20
2023-04-17T08:02:07.910Z,14.70
2023-04-17T08:04:35.867Z,15.00
2023-04-17T08:07:03.925Z,14.80
2023-04-17T08:09:31.761Z,16.30
2023-04-17T08:11:59.567Z,15.10
2023-04-17T08:14:27.329Z,14.90
2023-04-17T08:16:55.596Z,14.90
2023-04-17T08:19:23.601Z,16.60
2023-04-17T08:22:01.529Z,17.80
2023-04-17T08:24:31.797Z,15.80
2023-04-17T08:26:59.661Z,14.70
2023-04-17T08:29:27.726Z,15.20
2023-04-17T08:32:12.592Z,15.20
2023-04-17T08:34:44.496Z,15.00
2023-04-17T08:37:12.950Z,15.00
2023-04-17T08:39:40.923Z,16.20
2023-04-17T08:42:18.436Z,15.80
2023-04-17T08:44:46.793Z,16.40
2023-04-17T08:47:17.727Z,15.80
2023-04-17T08:49:46.085Z,16.40
2023-04-17T08:52:14.464Z,15.60
2023-04-17T08:54:42.632Z,16.70
2023-04-17T08:57:10.507Z,15.80
2023-04-17T08:59:38.261Z,16.20
2023-04-17T09:02:08.592Z,17.80
2023-04-17T09:04:45.276Z,17.50
2023-04-17T09:07:15.683Z,16.40
2023-04-17T09:09:55.476Z,16.90
2023-04-17T09:12:25.833Z,17.50
2023-04-17T09:14:53.669Z,16.30
2023-04-17T09:17:21.679Z,17.50
2023-04-17T09:20:07.518Z,16.40
2023-04-17T09:22:38.326Z,15.90
2023-04-17T09:25:23.218Z,16.30
2023-04-17T09:27:51.076Z,15.50
2023-04-17T09:30:18.905Z,15.50
2023-04-17T09:32:46.842Z,15.50
2023-04-17T09:35:26.014Z,15.90
2023-04-17T09:37:56.278Z,14.60
2023-04-17T09:40:25.348Z,13.30
2023-04-17T09:43:09.013Z,11.10
2023-04-17T09:45:42.157Z,11.40
2023-04-17T09:48:13.541Z,10.30
2023-04-17T09:50:41.450Z,10.30
2023-04-17T09:53:09.370Z,10.70
2023-04-17T09:55:41.612Z,10.90
2023-04-17T09:58:10.160Z,10.30
2023-04-17T10:00:41.868Z,9.40
2023-04-17T10:03:10.212Z,9.30
2023-04-17T10:05:38.527Z,8.40
2023-04-17T10:08:07.592Z,8.90
2023-04-17T10:10:36.532Z,8.30
2023-04-17T10:13:11.335Z,8.20
2023-04-17T10:15:40.060Z,8.10
2023-04-17T10:18:25.090Z,8.20
2023-04-17T10:20:55.543Z,8.40
2023-04-17T10:23:36.571Z,9.00
2023-04-17T10:26:26.513Z,8.90
2023-04-17T10:28:57.869Z,8.30
2023-04-17T10:32:10.266Z,8.30
2023-04-17T10:34:41.105Z,9.40
2023-04-17T10:37:15.431Z,9.60
2023-04-17T10:39:51.544Z,9.10
2023-04-17T10:42:22.020Z,9.30
2023-04-17T10:44:52.216Z,9.40
2023-04-17T10:47:22.268Z,9.90
2023-04-17T10:50:00.921Z,10.40
2023-04-17T10:52:34.745Z,9.90
2023-04-17T10:55:04.323Z,9.80
2023-04-17T10:58:02.149Z,9.90
2023-04-17T11:00:38.952Z,9.30
2023-04-17T11:03:07.436Z,8.20
2023-04-17T11:05:35.839Z,8.40
2023-04-17T11:08:03.851Z,8.70
2023-04-17T11:10:37.287Z,9.30
2023-04-17T11:13:05.232Z,7.90
2023-04-17T11:15:35.323Z,8.40
2023-04-17T11:18:04.063Z,8.70
2023-04-17T11:20:37.811Z,9.20
2023-04-17T11:23:06.856Z,8.60
2023-04-17T11:25:35.026Z,8.20
2023-04-17T11:28:06.703Z,7.50
2023-04-17T11:30:45.194Z,7.90
2023-04-17T11:33:17.029Z,7.00
2023-04-17T11:35:44.947Z,7.30
2023-04-17T11:38:20.931Z,7.20
2023-04-17T11:41:01.323Z,6.60
2023-04-17T11:43:34.852Z,6.40
2023-04-17T11:46:03.374Z,6.40
2023-04-17T11:48:32.545Z,6.50
2023-04-17T11:51:04.594Z,6.00
2023-04-17T11:53:36.191Z,5.90
2023-04-17T11:56:18.088Z,6.10
2023-04-17T11:58:53.430Z,5.50
2023-04-17T12:01:25.899Z,5.60
2023-04-17T12:03:58.709Z,5.40
2023-04-17T12:06:37.775Z,5.10
2023-04-17T12:09:07.190Z,5.50
2023-04-17T12:11:35.852Z,5.30
2023-04-17T12:14:11.581Z,5.30
2023-04-17T12:16:39.675Z,5.10
2023-04-17T12:19:08.000Z,5.90
2023-04-17T12:21:35.908Z,5.90
2023-04-17T12:24:03.892Z,6.30
2023-04-17T12:26:31.652Z,5.70
2023-04-17T12:28:59.404Z,5.70
2023-04-17T12:31:27.332Z,4.90
2023-04-17T12:33:55.157Z,4.90
2023-04-17T12:36:23.068Z,5.10
2023-04-17T12:38:51.352Z,5.30
2023-04-17T12:41:19.181Z,5.50
2023-04-17T12:43:46.921Z,4.90
2023-04-17T12:46:14.894Z,4.50
2023-04-17T12:48:42.632Z,4.40
2023-04-17T12:51:10.511Z,4.30
2023-04-17T12:53:38.357Z,4.00
2023-04-17T12:56:06.902Z,5.50
2023-04-17T12:58:34.653Z,5.00
2023-04-17T13:01:02.753Z,4.80
2023-04-17T13:03:30.860Z,5.10
2023-04-17T13:05:58.810Z,5.00
2023-04-17T13:08:26.672Z,5.30
2023-04-17T13:10:54.476Z,4.60
2023-04-17T13:13:23.019Z,4.90
2023-04-17T13:15:51.025Z,4.50
2023-04-17T13:18:18.761Z,4.50
2023-04-17T13:20:46.582Z,3.80
2023-04-17T13:23:14.493Z,3.80
2023-04-17T13:25:42.933Z,3.70
2023-04-17T13:28:10.948Z,3.90
2023-04-17T13:30:39.760Z,3.90
2023-04-17T13:33:07.852Z,4.70
2023-04-17T13:35:35.946Z,4.30
2023-04-17T13:38:04.309Z,4.00
2023-04-17T13:40:32.159Z,4.10
2023-04-17T13:43:00.521Z,3.80
2023-04-17T13:45:28.394Z,3.70
2023-04-17T13:47:56.213Z,4.00
2023-04-17T13:50:24.120Z,3.50
2023-04-17T13:52:52.088Z,3.50
2023-04-17T13:55:19.919Z,4.00
2023-04-17T13:57:47.750Z,4.00
2023-04-17T14:00:17.253Z,4.50
2023-04-17T14:02:45.172Z,3.60
2023-04-17T14:11:33.636Z,4.20
2023-04-17T14:14:01.428Z,3.90
2023-04-17T14:16:29.462Z,3.90
2023-04-17T14:19:01.329Z,4.20
2023-04-17T14:21:35.972Z,4.40
2023-04-17T14:24:04.028Z,4.60
2023-04-17T14:26:32.567Z,4.40
2023-04-17T14:29:00.956Z,4.20
2023-04-17T14:31:29.155Z,4.40
2023-04-17T14:33:57.015Z,3.90
2023-04-17T14:36:24.821Z,3.80
2023-04-17T14:38:54.334Z,4.30
2023-04-17T14:41:22.280Z,4.10
2023-04-17T14:43:50.133Z,3.80
2023-04-17T14:46:17.970Z,4.00
2023-04-17T14:48:54.747Z,4.20
2023-04-17T14:51:24.391Z,3.80
2023-04-17T14:53:53.105Z,3.60
2023-04-17T14:56:21.954Z,4.10
2023-04-17T14:58:50.206Z,4.30
2023-04-17T15:01:18.107Z,4.70
2023-04-17T15:03:48.398Z,3.30
2023-04-17T15:06:17.042Z,2.60
2023-04-17T15:08:46.197Z,2.30
2023-04-17T15:11:14.445Z,2.50
2023-04-17T15:13:42.468Z,2.10
2023-04-17T15:16:10.969Z,2.20
2023-04-17T15:18:39.526Z,2.50
2023-04-17T15:21:07.934Z,2.10
2023-04-17T15:23:35.962Z,2.10
2023-04-17T15:26:04.038Z,2.20
2023-04-17T15:28:33.109Z,2.70
2023-04-17T15:31:02.392Z,2.80
2023-04-17T15:33:30.573Z,2.50
2023-04-17T15:36:00.153Z,2.60
2023-04-17T15:38:28.121Z,2.50
2023-04-17T15:40:55.968Z,2.60
2023-04-17T15:43:23.901Z,2.30
2023-04-17T15:45:52.180Z,2.30
2023-04-17T15:48:20.139Z,2.40
2023-04-17T15:50:47.984Z,2.30
2023-04-17T15:53:15.769Z,2.40
2023-04-17T15:55:43.634Z,2.20
2023-04-17T15:58:11.659Z,2.10
2023-04-17T16:00:39.550Z,2.30
2023-04-17T16:03:10.313Z,2.20
2023-04-17T16:05:38.274Z,2.50
2023-04-17T16:08:06.185Z,2.30
2023-04-17T16:10:34.953Z,2.40
2023-04-17T16:13:02.978Z,2.80
2023-04-17T16:15:30.938Z,2.40
2023-04-17T16:17:59.015Z,2.40
2023-04-17T16:20:26.872Z,2.30
2023-04-17T16:22:54.687Z,2.60
2023-04-17T16:25:22.756Z,2.20
2023-04-17T16:27:50.752Z,2.50
2023-04-17T16:30:18.635Z,3.00
2023-04-17T16:32:48.678Z,2.20
2023-04-17T16:35:17.300Z,2.30
2023-04-17T16:37:45.272Z,2.20
2023-04-17T16:40:13.236Z,2.10
2023-04-17T16:42:42.430Z,2.30
2023-04-17T16:45:10.474Z,2.70
2023-04-17T16:47:38.862Z,2.70
2023-04-17T16:50:08.752Z,2.50
2023-04-17T16:52:41.009Z,2.50
2023-04-17T16:55:09.498Z,2.30
2023-04-17T16:57:38.262Z,2.50
2023-04-17T17:00:08.119Z,2.30
2023-04-17T17:02:37.335Z,2.40
2023-04-17T17:05:06.092Z,2.20
2023-04-17T17:07:34.170Z,2.50
2023-04-17T17:10:01.995Z,2.30
2023-04-17T17:12:29.888Z,2.40
2023-04-17T17:14:58.162Z,2.50
2023-04-17T17:17:26.071Z,2.50
2023-04-17T17:19:54.028Z,2.40
2023-04-17T17:22:21.792Z,2.10
2023-04-17T17:24:49.681Z,2.30
2023-04-17T17:27:17.545Z,2.10
2023-04-17T17:29:45.524Z,2.10
2023-04-17T17:32:14.399Z,2.00
2023-04-17T17:34:43.555Z,2.30
2023-04-17T17:37:11.868Z,2.10
2023-04-17T17:39:39.698Z,2.40
2023-04-17T17:42:08.725Z,2.10
2023-04-17T17:44:37.948Z,2.20
2023-04-17T17:47:07.770Z,2.00
2023-04-17T17:49:36.051Z,2.30
2023-04-17T17:52:04.134Z,2.20
2023-04-17T17:54:37.089Z,2.30
2023-04-17T17:57:06.453Z,2.10
2023-04-17T17:59:34.474Z,2.30
2023-04-17T18:02:02.643Z,2.30
2023-04-17T18:04:31.093Z,2.10
2023-04-17T18:06:59.043Z,2.10
2023-04-17T18:09:27.416Z,1.90
2023-04-17T18:11:55.759Z,2.10
2023-04-17T18:14:23.869Z,2.20
2023-04-17T18:16:51.970Z,2.30
2023-04-17T18:19:19.892Z,2.20
2023-04-17T18:21:48.527Z,2.20
2023-04-17T18:24:16.624Z,2.50
2023-04-17T18:26:44.511Z,2.10
2023-04-17T18:29:12.490Z,1.80
2023-04-17T18:31:40.409Z,2.20
2023-04-17T18:34:08.333Z,1.90
2023-04-17T18:36:36.206Z,2.00
2023-04-17T18:39:04.063Z,2.20
2023-04-17T18:41:32.332Z,2.00
2023-04-17T18:44:01.146Z,2.30
2023-04-17T18:46:30.537Z,3.40
2023-04-17T18:48:58.580Z,3.10
2023-04-17T18:51:26.314Z,3.00
2023-04-17T18:53:54.095Z,3.10
2023-04-17T18:56:24.161Z,4.60
2023-04-17T18:58:53.470Z,4.30
2023-04-17T19:01:22.887Z,4.90
2023-04-17T19:03:53.351Z,5.60
2023-04-17T19:06:22.295Z,5.30
2023-04-17T19:08:51.929Z,6.10
2023-04-17T19:11:21.982Z,6.40
2023-04-17T19:13:51.244Z,6.10
2023-04-17T19:16:20.398Z,5.80
2023-04-17T19:18:49.502Z,5.50
2023-04-17T19:21:18.416Z,6.40
2023-04-17T19:23:47.989Z,5.90
2023-04-17T19:26:17.861Z,6.50
2023-04-17T19:28:46.912Z,6.90
2023-04-17T19:31:16.235Z,6.40
2023-04-17T19:33:45.259Z,7.30
2023-04-17T19:36:14.234Z,6.80
2023-04-17T19:38:44.184Z,7.30
2023-04-17T19:41:18.291Z,7.70
2023-04-17T19:43:54.164Z,7.40
2023-04-17T19:46:24.836Z,8.50
2023-04-17T19:48:53.792Z,8.30
2023-04-17T19:51:22.895Z,8.20
2023-04-17T19:53:53.302Z,7.50
2023-04-17T19:56:21.987Z,8.10
2023-04-17T19:58:50.384Z,8.20
2023-04-17T20:01:19.316Z,8.50
2023-04-17T20:03:48.240Z,8.70
2023-04-17T20:06:17.036Z,8.70
2023-04-17T20:08:45.252Z,8.60
2023-04-17T20:11:15.707Z,9.50
2023-04-17T20:13:43.515Z,11.10
2023-04-17T20:16:11.431Z,9.10
2023-04-17T20:18:39.945Z,10.50
2023-04-17T20:21:07.794Z,9.80
2023-04-17T20:23:35.985Z,10.40
2023-04-17T20:26:03.927Z,9.80
2023-04-17T20:28:31.832Z,9.10
2023-04-17T20:30:59.702Z,8.80
2023-04-17T20:33:27.671Z,9.20
2023-04-17T20:35:55.486Z,9.40
2023-04-17T20:38:23.467Z,9.20
2023-04-17T20:40:51.295Z,8.90
2023-04-17T20:43:19.282Z,9.70
2023-04-17T20:45:48.402Z,9.90
2023-04-17T20:48:16.623Z,10.30
2023-04-17T20:50:44.660Z,10.50
2023-04-17T20:53:12.460Z,10.60
2023-04-17T20:55:40.343Z,10.40
2023-04-17T20:58:08.602Z,10.00
2023-04-17T21:00:38.558Z,10.60
2023-04-17T21:03:12.948Z,10.80
2023-04-17T21:05:40.787Z,11.40
2023-04-17T21:08:08.682Z,11.80
2023-04-17T21:10:36.582Z,11.30
2023-04-17T21:13:04.412Z,11.90
2023-04-17T21:15:32.908Z,11.20
2023-04-17T21:18:00.872Z,11.70
2023-04-17T21:20:28.725Z,12.00
2023-04-17T21:22:56.512Z,12.20
2023-04-17T21:25:24.390Z,12.60
2023-04-17T21:27:52.587Z,12.30
2023-04-17T21:30:20.431Z,12.80
2023-04-17T21:32:48.324Z,12.80
2023-04-17T21:35:16.235Z,14.20
2023-04-17T21:37:44.020Z,13.60
2023-04-17T21:40:12.758Z,13.00
2023-04-17T21:42:40.686Z,14.90
2023-04-17T21:45:09.185Z,13.50
2023-04-17T21:47:37.439Z,13.20
2023-04-17T21:50:06.034Z,13.30
2023-04-17T21:52:33.904Z,12.70
2023-04-17T21:55:03.263Z,12.50
2023-04-17T21:57:35.032Z,12.60
2023-04-17T22:00:05.299Z,12.70
2023-04-17T22:02:34.541Z,12.90
2023-04-17T22:05:02.400Z,13.00
2023-04-17T22:07:30.744Z,13.10
2023-04-17T22:10:02.213Z,12.60
2023-04-17T22:12:30.024Z,13.00
2023-04-17T22:14:57.823Z,12.90
2023-04-17T22:17:25.687Z,14.30
2023-04-17T22:19:55.847Z,14.00
2023-04-17T22:22:23.971Z,13.60
2023-04-17T22:24:52.173Z,13.10
2023-04-17T22:27:20.040Z,13.40
2023-04-17T22:29:47.936Z,14.40
2023-04-17T22:32:16.380Z,13.70
2023-04-17T22:34:51.131Z,14.70
2023-04-17T22:37:19.308Z,14.50
2023-04-17T22:39:47.185Z,14.90
2023-04-17T22:42:15.033Z,16.00
2023-04-17T22:44:42.806Z,14.70
2023-04-17T22:47:10.601Z,16.50
2023-04-17T22:49:38.514Z,15.60
2023-04-17T22:52:07.500Z,15.70
2023-04-17T22:54:36.698Z,15.50
2023-04-17T22:57:04.604Z,15.00
2023-04-17T22:59:33.150Z,15.10
2023-04-17T23:02:01.353Z,14.30
2023-04-17T23:04:29.337Z,15.30
2023-04-17T23:06:57.265Z,14.80
2023-04-17T23:09:25.958Z,14.90
2023-04-17T23:11:53.773Z,14.10
2023-04-17T23:14:21.583Z,13.70
2023-04-17T23:16:49.422Z,13.80
2023-04-17T23:19:18.222Z,14.40
2023-04-17T23:21:46.003Z,14.00
2023-04-17T23:24:14.102Z,13.40
2023-04-17T23:26:42.296Z,13.10
2023-04-17T23:29:10.146Z,14.10
2023-04-17T23:31:38.308Z,13.60
2023-04-17T23:34:06.253Z,13.00
2023-04-17T23:36:34.086Z,13.60
2023-04-17T23:39:01.913Z,13.90
2023-04-17T23:41:29.829Z,14.00
2023-04-17T23:43:57.662Z,14.00
2023-04-17T23:46:25.923Z,13.60
2023-04-17T23:48:53.792Z,15.10
2023-04-17T23:51:21.603Z,14.00
2023-04-17T23:53:49.378Z,13.60
2023-04-17T23:56:18.176Z,13.60
2023-04-17T23:58:46.074Z,13.80
